Time;durP1;ratioP1;P1;durP2;ratioP2;P2;SDS_P1;SDS_P2;PMS_P1;PMS_P2;Temp;Humidity;BMP_temperature;BMP_pressure;BME280_temperature;BME280_humidity;BME280_pressure;Samples;Min_cycle;Max_cycle;Signal;HPM_P1;HPM_P2
2022/05/02 00:00:44;;;;;;;5.40;4.80;;;16.90;76.00;;;;;;5026501;28;20423;-69
2022/05/02 00:03:10;;;;;;;6.17;5.57;;;16.90;76.00;;;;;;5012064;28;20439;-69
2022/05/02 00:05:37;;;;;;;6.57;5.63;;;16.90;76.00;;;;;;5010660;28;20598;-69
2022/05/02 00:08:04;;;;;;;7.40;6.27;;;16.80;75.90;;;;;;5012889;28;20895;-69
2022/05/02 00:10:33;;;;;;;7.50;5.90;;;16.80;75.90;;;;;;5012061;28;20432;-69
2022/05/02 00:13:02;;;;;;;6.00;5.40;;;16.80;76.00;;;;;;5026729;28;20793;-69
2022/05/02 00:15:31;;;;;;;6.40;5.73;;;16.80;76.00;;;;;;5011210;28;20776;-70
2022/05/02 00:18:00;;;;;;;6.33;5.73;;;16.80;76.00;;;;;;5011073;28;20452;-69
2022/05/02 00:20:35;;;;;;;6.23;5.63;;;16.80;76.00;;;;;;5010888;28;20429;-70
2022/05/02 00:23:09;;;;;;;5.83;5.20;;;16.80;76.10;;;;;;5030595;28;20833;-69
2022/05/02 00:25:37;;;;;;;5.77;5.27;;;16.80;76.10;;;;;;5030240;28;20553;-69
2022/05/02 00:28:04;;;;;;;5.60;5.07;;;16.70;76.00;;;;;;5029285;28;20971;-69
2022/05/02 00:30:31;;;;;;;6.67;5.17;;;16.70;76.00;;;;;;4996582;28;20785;-69
2022/05/02 00:32:59;;;;;;;6.33;5.53;;;16.70;76.10;;;;;;5029487;28;20907;-69
2022/05/02 00:35:30;;;;;;;6.03;5.43;;;16.70;76.10;;;;;;5028954;28;20577;-69
2022/05/02 00:37:59;;;;;;;8.50;5.47;;;16.70;76.10;;;;;;4996383;28;20457;-69
2022/05/02 00:40:25;;;;;;;8.30;5.30;;;16.70;76.10;;;;;;5011846;28;20497;-69
2022/05/02 00:42:54;;;;;;;6.30;5.67;;;16.70;76.10;;;;;;5019847;28;20865;-69
2022/05/02 00:45:22;;;;;;;5.83;5.30;;;16.70;76.10;;;;;;5030436;28;20834;-69
2022/05/02 00:47:50;;;;;;;7.03;5.83;;;16.60;76.50;;;;;;5028994;28;20971;-69
2022/05/02 00:50:33;;;;;;;6.00;5.27;;;16.60;76.10;;;;;;5030013;28;20423;-69
2022/05/02 00:53:05;;;;;;;6.30;5.13;;;16.60;76.10;;;;;;5029201;28;21210;-69
2022/05/02 00:55:31;;;;;;;6.37;5.77;;;16.60;76.10;;;;;;5012775;28;20931;-69
2022/05/02 00:58:02;;;;;;;5.80;5.30;;;16.60;76.20;;;;;;4999226;28;20495;-69
2022/05/02 01:00:30;;;;;;;6.27;5.67;;;16.60;76.20;;;;;;5009837;28;20492;-69
2022/05/02 01:02:59;;;;;;;6.13;5.03;;;16.50;76.10;;;;;;4994412;28;20861;-69
2022/05/02 01:05:25;;;;;;;5.97;5.37;;;16.50;76.10;;;;;;5011750;28;20830;-69
2022/05/02 01:07:53;;;;;;;7.50;6.00;;;16.50;76.10;;;;;;5010005;28;20454;-69
2022/05/02 01:10:24;;;;;;;6.30;5.30;;;16.50;76.70;;;;;;5010381;28;20447;-69
2022/05/02 01:12:51;;;;;;;6.07;5.47;;;16.50;76.20;;;;;;5011612;28;20408;-69
2022/05/02 01:15:19;;;;;;;6.10;5.50;;;16.50;76.30;;;;;;5006921;28;20878;-69
2022/05/02 01:17:47;;;;;;;5.97;5.37;;;16.50;76.20;;;;;;5012765;28;20442;-69
2022/05/02 01:20:14;;;;;;;5.80;5.10;;;16.50;76.30;;;;;;5030087;28;20985;-69
2022/05/02 01:22:42;;;;;;;7.77;5.37;;;16.50;76.30;;;;;;5015011;28;20412;-69
2022/05/02 01:25:09;;;;;;;6.50;5.77;;;16.40;76.30;;;;;;5014137;28;20424;-69
2022/05/02 01:27:41;;;;;;;5.90;5.10;;;16.40;76.30;;;;;;5029533;28;20707;-69
2022/05/02 01:30:10;;;;;;;5.73;5.13;;;16.40;76.30;;;;;;5015038;28;20415;-69
2022/05/02 01:32:38;;;;;;;5.57;4.80;;;16.40;76.30;;;;;;5013261;28;20558;-69
2022/05/02 01:35:05;;;;;;;5.97;5.47;;;16.40;76.40;;;;;;5029680;28;20420;-69
2022/05/02 01:37:33;;;;;;;5.50;5.00;;;16.40;76.40;;;;;;5028722;28;20943;-69
2022/05/02 01:39:59;;;;;;;6.73;5.20;;;16.40;76.50;;;;;;5013247;28;20790;-69
2022/05/02 01:42:29;;;;;;;5.47;4.97;;;16.30;76.30;;;;;;5014647;28;20410;-69
2022/05/02 01:44:55;;;;;;;8.03;5.67;;;16.30;76.40;;;;;;5029424;28;21013;-69
2022/05/02 01:47:23;;;;;;;5.27;4.77;;;16.30;76.40;;;;;;5013587;28;20430;-69
2022/05/02 01:49:51;;;;;;;7.37;5.63;;;16.30;76.30;;;;;;5029487;28;20415;-69
2022/05/02 01:52:19;;;;;;;6.70;5.43;;;16.30;76.30;;;;;;5012783;28;20446;-69
2022/05/02 01:54:45;;;;;;;5.50;5.00;;;16.30;76.30;;;;;;5029186;28;20434;-69
2022/05/02 01:57:11;;;;;;;7.77;5.33;;;16.30;76.30;;;;;;5020081;28;20683;-69
2022/05/02 01:59:37;;;;;;;6.20;5.47;;;16.20;76.20;;;;;;5015456;28;20510;-69
2022/05/02 02:02:08;;;;;;;6.73;5.60;;;16.20;76.20;;;;;;5032667;28;20251;-69
2022/05/02 02:07:21;;;;;;;6.23;4.90;;;16.20;76.20;;;;;;5019882;28;20476;-69
2022/05/02 02:09:49;;;;;;;5.97;5.37;;;16.20;76.30;;;;;;5014264;28;20967;-69
2022/05/02 02:12:17;;;;;;;6.10;5.00;;;16.20;76.40;;;;;;5013041;28;20407;-69
2022/05/02 02:14:43;;;;;;;6.00;4.67;;;16.20;76.30;;;;;;5012837;28;20777;-69
2022/05/02 02:17:09;;;;;;;7.03;6.33;;;16.20;76.40;;;;;;5028870;28;20411;-69
2022/05/02 02:19:37;;;;;;;6.00;5.20;;;16.10;76.40;;;;;;5012850;28;20208;-69
2022/05/02 02:22:17;;;;;;;5.57;5.07;;;16.10;76.40;;;;;;5012774;28;20442;-69
2022/05/02 02:24:50;;;;;;;5.80;5.20;;;16.10;76.40;;;;;;5014002;28;20444;-69
2022/05/02 02:27:16;;;;;;;6.00;5.40;;;16.10;76.40;;;;;;5012411;28;20486;-69
2022/05/02 02:29:44;;;;;;;5.97;5.47;;;16.10;76.50;;;;;;5011587;28;20410;-69
2022/05/02 02:32:13;;;;;;;5.27;4.77;;;16.10;76.50;;;;;;5013641;28;20483;-69
2022/05/02 02:34:43;;;;;;;5.10;4.70;;;16.00;76.40;;;;;;5028223;28;20584;-69
2022/05/02 02:37:09;;;;;;;6.00;5.30;;;16.00;76.50;;;;;;5013513;28;20452;-69
2022/05/02 02:39:35;;;;;;;6.83;5.53;;;16.10;77.40;;;;;;5013179;28;20446;-69
2022/05/02 02:42:07;;;;;;;5.70;5.20;;;16.00;76.50;;;;;;5031081;28;20505;-69
2022/05/02 02:44:32;;;;;;;6.60;5.93;;;16.00;76.50;;;;;;5030842;28;20420;-68
2022/05/02 02:47:01;;;;;;;6.67;5.53;;;16.00;76.50;;;;;;4997875;28;20461;-68
2022/05/02 02:49:29;;;;;;;6.33;5.73;;;16.00;76.60;;;;;;5030766;28;20513;-69
2022/05/02 02:51:58;;;;;;;7.00;5.30;;;16.00;76.60;;;;;;5030728;28;20431;-69
2022/05/02 02:54:24;;;;;;;5.83;5.20;;;16.00;76.60;;;;;;5031853;28;20451;-69
2022/05/02 02:56:50;;;;;;;5.73;5.13;;;16.00;76.70;;;;;;5009413;28;20980;-69
2022/05/02 02:59:16;;;;;;;5.90;5.30;;;15.90;76.50;;;;;;5027934;28;20481;-68
2022/05/02 03:01:42;;;;;;;10.10;5.73;;;15.90;76.60;;;;;;4997650;28;20450;-69
2022/05/02 03:06:53;;;;;;;6.50;5.33;;;15.90;76.60;;;;;;5008034;28;20913;-69
2022/05/02 03:09:20;;;;;;;6.80;6.10;;;15.90;76.60;;;;;;5012096;28;20852;-69
2022/05/02 03:11:46;;;;;;;5.90;5.40;;;15.90;76.70;;;;;;5012193;28;20440;-69
2022/05/02 03:14:12;;;;;;;6.40;5.30;;;15.90;76.70;;;;;;5012666;28;20414;-69
2022/05/02 03:16:44;;;;;;;7.70;6.03;;;15.80;76.60;;;;;;5012584;28;20418;-69
2022/05/02 03:19:14;;;;;;;6.37;5.77;;;15.80;76.70;;;;;;5010769;28;20460;-69
2022/05/02 03:21:41;;;;;;;5.80;5.20;;;15.80;76.70;;;;;;4979289;28;20478;-69
2022/05/02 03:24:09;;;;;;;6.80;6.10;;;15.80;76.70;;;;;;5027229;28;20423;-69
2022/05/02 03:26:37;;;;;;;5.70;5.20;;;15.80;76.80;;;;;;5011555;28;20990;-68
2022/05/02 03:29:03;;;;;;;6.30;5.70;;;15.80;76.80;;;;;;5011428;28;20295;-69
2022/05/02 03:31:29;;;;;;;6.63;5.97;;;15.80;76.80;;;;;;5020412;28;20423;-69
2022/05/02 03:33:57;;;;;;;6.63;5.97;;;15.70;76.70;;;;;;5012648;28;20466;-69
2022/05/02 03:36:28;;;;;;;6.90;6.20;;;15.70;76.70;;;;;;5003044;28;20198;-69
2022/05/02 03:38:56;;;;;;;6.60;5.77;;;15.70;76.70;;;;;;5030732;28;20958;-68
2022/05/02 03:41:22;;;;;;;6.90;5.60;;;15.70;76.80;;;;;;5030947;28;20470;-69
2022/05/02 03:43:47;;;;;;;6.70;6.10;;;15.70;76.80;;;;;;5021611;28;21013;-69
2022/05/02 03:46:16;;;;;;;8.93;6.00;;;15.70;76.90;;;;;;5027185;28;20602;-69
2022/05/02 03:48:44;;;;;;;6.17;5.57;;;15.70;77.00;;;;;;5012494;28;20519;-69
2022/05/02 03:51:11;;;;;;;6.97;6.30;;;15.70;77.00;;;;;;5010740;28;20857;-69
2022/05/02 03:53:37;;;;;;;7.63;5.83;;;15.70;77.00;;;;;;5016371;28;20419;-69
2022/05/02 03:56:03;;;;;;;7.17;6.47;;;15.60;77.70;;;;;;5031078;28;20437;-69
2022/05/02 03:58:36;;;;;;;6.40;5.77;;;15.60;76.90;;;;;;5012252;28;21004;-69
2022/05/02 04:01:07;;;;;;;6.70;6.10;;;15.60;76.90;;;;;;5029407;28;20596;-69
2022/05/02 04:03:33;;;;;;;7.37;6.40;;;15.60;77.00;;;;;;5018380;28;20512;-69
2022/05/02 04:05:59;;;;;;;7.37;5.77;;;15.60;77.00;;;;;;5010741;28;20520;-69
2022/05/02 04:08:25;;;;;;;6.60;6.00;;;15.60;77.00;;;;;;5012090;28;20431;-69
2022/05/02 04:10:51;;;;;;;8.80;6.73;;;15.60;77.10;;;;;;5012276;28;20414;-69
2022/05/02 04:13:20;;;;;;;10.10;8.00;;;15.60;77.10;;;;;;5010614;28;20438;-69
2022/05/02 04:15:46;;;;;;;7.67;6.97;;;15.60;77.20;;;;;;4999058;28;20783;-69
2022/05/02 04:18:12;;;;;;;7.57;6.37;;;15.50;77.10;;;;;;4990903;28;20498;-68
2022/05/02 04:20:40;;;;;;;8.20;7.33;;;15.50;77.10;;;;;;4991241;28;20446;-69
2022/05/02 04:23:06;;;;;;;7.33;6.50;;;15.50;77.10;;;;;;4991081;28;20417;-69
2022/05/02 04:25:33;;;;;;;7.00;6.30;;;15.50;77.20;;;;;;4991241;28;20463;-69
2022/05/02 04:27:59;;;;;;;7.17;6.57;;;15.50;77.20;;;;;;4991071;28;20956;-69
2022/05/02 04:30:28;;;;;;;7.23;6.53;;;15.50;77.20;;;;;;4983785;28;20427;-69
2022/05/02 04:32:58;;;;;;;7.47;5.97;;;15.50;77.20;;;;;;4994181;28;20524;-69
2022/05/02 04:35:27;;;;;;;6.87;6.17;;;15.50;77.30;;;;;;5010469;28;20433;-69
2022/05/02 04:37:53;;;;;;;7.53;6.83;;;15.50;77.30;;;;;;5011862;28;20789;-69
2022/05/02 04:40:21;;;;;;;7.50;6.80;;;15.50;77.40;;;;;;4990097;28;20454;-69
2022/05/02 04:42:50;;;;;;;8.40;6.13;;;15.40;77.30;;;;;;4992097;28;20409;-69
2022/05/02 04:45:16;;;;;;;7.23;5.90;;;15.40;77.30;;;;;;4991034;28;20431;-68
2022/05/02 04:47:44;;;;;;;6.97;6.30;;;15.40;77.40;;;;;;4993773;28;20432;-68
2022/05/02 04:50:10;;;;;;;7.03;6.37;;;15.40;77.40;;;;;;5012022;28;20404;-69
2022/05/02 04:52:37;;;;;;;7.37;6.67;;;15.40;77.40;;;;;;4995440;28;20409;-69
2022/05/02 04:55:03;;;;;;;7.17;6.47;;;15.40;77.40;;;;;;4997780;28;20432;-69
2022/05/02 04:57:31;;;;;;;7.70;6.90;;;15.40;77.60;;;;;;4997434;28;20552;-69
2022/05/02 04:59:59;;;;;;;7.20;6.50;;;15.40;77.50;;;;;;5016620;28;20424;-68
2022/05/02 05:02:29;;;;;;;7.47;6.07;;;15.40;77.60;;;;;;5015319;28;20434;-69
2022/05/02 05:04:55;;;;;;;7.60;6.60;;;15.30;77.50;;;;;;5014483;28;20424;-69
2022/05/02 05:07:21;;;;;;;6.80;6.03;;;15.30;77.50;;;;;;5015446;28;20973;-69
2022/05/02 05:09:50;;;;;;;7.70;6.40;;;15.30;77.60;;;;;;5015456;28;20424;-69
2022/05/02 05:12:45;;;;;;;8.80;7.33;;;15.30;77.60;;;;;;4998413;28;20510;-69
2022/05/02 05:18:44;;;;;;;6.90;6.20;;;15.30;77.70;;;;;;5013272;28;20484;-69
2022/05/02 05:22:00;;;;;;;6.23;5.50;;;15.30;77.70;;;;;;4981345;28;20404;-69
2022/05/02 05:24:50;;;;;;;6.73;6.13;;;15.30;77.90;;;;;;4981082;28;20948;-69
2022/05/02 05:27:54;;;;;;;6.73;6.03;;;15.20;77.80;;;;;;5013622;28;21043;-69
2022/05/02 05:30:26;;;;;;;6.57;5.87;;;15.20;77.90;;;;;;5014706;28;20454;-69
2022/05/02 05:33:15;;;;;;;7.13;5.97;;;15.20;77.90;;;;;;5014868;28;20421;-69
2022/05/02 05:35:53;;;;;;;7.33;6.63;;;15.20;78.00;;;;;;5003205;28;20438;-69
2022/05/02 05:38:41;;;;;;;7.20;6.50;;;15.20;78.00;;;;;;4996560;28;20540;-69
2022/05/02 05:41:35;;;;;;;6.87;6.17;;;15.20;78.10;;;;;;4981270;28;20516;-69
2022/05/02 05:44:07;;;;;;;8.00;6.53;;;15.20;78.10;;;;;;5013486;28;20423;-69
2022/05/02 05:46:47;;;;;;;6.87;6.10;;;15.10;78.00;;;;;;4997254;28;20498;-69
2022/05/02 05:49:38;;;;;;;7.37;6.03;;;15.10;78.10;;;;;;5027491;28;20450;-69
2022/05/02 05:52:35;;;;;;;7.87;6.40;;;15.10;78.20;;;;;;4990181;28;20848;-68
2022/05/02 05:55:37;;;;;;;7.90;6.97;;;15.10;78.20;;;;;;4997357;28;20447;-69
2022/05/02 05:58:20;;;;;;;8.47;6.83;;;15.10;78.30;;;;;;5010537;28;20535;-69
2022/05/02 06:00:53;;;;;;;6.50;5.90;;;15.10;78.30;;;;;;5014030;28;20462;-69
2022/05/02 06:03:33;;;;;;;8.93;6.50;;;15.10;78.30;;;;;;5013918;28;20421;-69
2022/05/02 06:06:02;;;;;;;7.83;6.40;;;15.10;78.40;;;;;;5013972;28;20452;-69
2022/05/02 06:08:31;;;;;;;6.93;6.23;;;15.10;78.50;;;;;;5014046;28;20864;-69
2022/05/02 06:11:03;;;;;;;7.40;6.33;;;15.10;78.50;;;;;;5012100;28;20471;-68
2022/05/02 06:13:32;;;;;;;7.13;6.43;;;15.10;78.50;;;;;;4996912;28;20404;-69
2022/05/02 06:18:50;;;;;;;7.40;6.33;;;15.10;78.60;;;;;;5013024;28;20452;-69
2022/05/02 06:21:22;;;;;;;6.20;5.63;;;15.10;78.50;;;;;;4996457;28;20906;-69
2022/05/02 06:23:52;;;;;;;8.57;5.97;;;15.10;78.60;;;;;;5012589;28;20475;-69
2022/05/02 06:26:23;;;;;;;7.20;6.50;;;15.10;78.70;;;;;;5011848;28;20480;-69
2022/05/02 06:28:52;;;;;;;8.03;7.20;;;15.10;78.60;;;;;;5013910;28;20944;-69
2022/05/02 06:31:23;;;;;;;7.10;6.20;;;15.10;78.70;;;;;;4996583;28;20921;-69
2022/05/02 06:33:52;;;;;;;6.60;5.33;;;15.10;78.80;;;;;;5013732;28;20493;-69
2022/05/02 06:36:45;;;;;;;7.00;6.30;;;15.10;78.80;;;;;;4996615;28;20438;-68
2022/05/02 06:39:14;;;;;;;6.93;6.27;;;15.10;78.80;;;;;;5012885;28;20974;-69
2022/05/02 06:41:52;;;;;;;7.50;6.27;;;15.10;79.00;;;;;;5013735;28;20818;-69
2022/05/02 06:44:41;;;;;;;6.50;5.90;;;15.10;79.00;;;;;;5012570;28;20535;-69
2022/05/02 06:47:13;;;;;;;8.63;7.73;;;15.10;78.90;;;;;;5012294;28;20485;-69
2022/05/02 06:49:48;;;;;;;7.43;5.20;;;15.10;79.00;;;;;;5012591;28;20452;-69
2022/05/02 06:52:23;;;;;;;7.97;5.47;;;15.10;79.00;;;;;;5013453;28;20438;-69
2022/05/02 06:55:30;;;;;;;6.77;6.07;;;15.10;79.00;;;;;;4995851;28;20436;-69
2022/05/02 06:58:03;;;;;;;6.13;5.60;;;15.10;79.00;;;;;;5012398;28;20490;-69
2022/05/02 07:00:46;;;;;;;6.87;6.03;;;15.00;78.90;;;;;;5012339;28;20434;-69
2022/05/02 07:03:47;;;;;;;7.20;5.77;;;15.00;79.00;;;;;;5013951;28;20682;-69
2022/05/02 07:06:53;;;;;;;7.00;5.43;;;15.00;79.00;;;;;;5002384;28;20480;-68
2022/05/02 07:09:30;;;;;;;5.63;5.03;;;15.00;78.90;;;;;;5012628;28;20510;-68
2022/05/02 07:12:22;;;;;;;6.40;5.80;;;15.00;78.90;;;;;;4995645;28;20455;-69
2022/05/02 07:15:03;;;;;;;6.10;5.47;;;15.00;79.00;;;;;;5012927;28;20408;-68
2022/05/02 07:17:44;;;;;;;6.23;5.63;;;15.10;79.20;;;;;;5012957;28;20439;-68
2022/05/02 07:20:22;;;;;;;6.33;5.73;;;15.00;78.80;;;;;;5008824;28;20441;-68
2022/05/02 07:23:06;;;;;;;7.27;5.80;;;15.10;78.80;;;;;;4993157;28;20397;-68
2022/05/02 07:25:35;;;;;;;5.90;5.30;;;15.10;78.80;;;;;;4997325;28;20481;-68
2022/05/02 07:28:23;;;;;;;6.00;5.40;;;15.10;78.80;;;;;;4995427;28;21000;-68
2022/05/02 07:30:53;;;;;;;6.23;5.27;;;15.10;78.90;;;;;;5011524;28;20552;-69
2022/05/02 07:33:21;;;;;;;6.20;5.60;;;15.10;78.90;;;;;;5011867;28;20992;-68
2022/05/02 07:35:53;;;;;;;6.47;5.87;;;15.10;78.80;;;;;;5012869;28;20824;-68
2022/05/02 07:38:21;;;;;;;7.20;6.50;;;15.10;78.80;;;;;;5011945;28;20422;-68
2022/05/02 07:43:36;;;;;;;6.00;5.50;;;15.10;78.70;;;;;;5012657;28;20503;-69
2022/05/02 07:46:05;;;;;;;6.67;5.97;;;15.10;78.60;;;;;;5011017;28;20940;-70
2022/05/02 07:48:43;;;;;;;6.20;5.50;;;15.10;78.60;;;;;;5011354;28;20472;-70
2022/05/02 07:51:12;;;;;;;6.50;5.90;;;15.20;78.60;;;;;;5001616;28;20438;-70
2022/05/02 07:53:43;;;;;;;6.70;6.00;;;15.20;78.60;;;;;;5015604;28;20581;-70
2022/05/02 07:56:10;;;;;;;6.73;5.33;;;15.20;78.60;;;;;;5010650;28;20463;-70
2022/05/02 07:58:43;;;;;;;8.37;6.10;;;15.20;78.60;;;;;;5011335;28;20500;-70
2022/05/02 08:01:16;;;;;;;7.77;6.07;;;15.20;78.50;;;;;;4995033;28;20459;-70
2022/05/02 08:03:42;;;;;;;7.57;5.57;;;15.20;78.50;;;;;;5011619;28;20504;-70
2022/05/02 08:06:18;;;;;;;6.50;5.80;;;15.20;78.50;;;;;;5012381;28;20930;-70
2022/05/02 08:09:00;;;;;;;7.73;5.93;;;15.30;78.70;;;;;;5011066;28;20202;-70
2022/05/02 08:11:53;;;;;;;8.20;6.47;;;15.20;78.50;;;;;;4996617;28;20485;-70
2022/05/02 08:14:42;;;;;;;7.77;6.97;;;15.30;78.70;;;;;;4946892;28;20437;-70
2022/05/02 08:17:37;;;;;;;7.00;6.30;;;15.30;78.80;;;;;;4942431;28;20512;-70
2022/05/02 08:20:28;;;;;;;7.10;6.40;;;15.30;78.70;;;;;;5010347;28;20492;-69
2022/05/02 08:29:34;;;;;;;7.00;6.30;;;15.30;78.70;;;;;;5015331;28;20511;-70
2022/05/02 08:32:22;;;;;;;9.73;7.50;;;15.40;78.70;;;;;;5016115;28;20406;-70
2022/05/02 08:35:21;;;;;;;10.60;7.10;;;15.40;78.90;;;;;;5016023;28;20436;-70
2022/05/02 08:38:23;;;;;;;10.60;8.30;;;15.40;78.80;;;;;;5013982;28;20456;-70
2022/05/02 08:41:06;;;;;;;12.93;8.40;;;15.40;78.90;;;;;;4955054;29;20471;-70
2022/05/02 08:43:35;;;;;;;9.70;7.20;;;15.50;79.00;;;;;;5009766;28;20496;-70
2022/05/02 08:46:26;;;;;;;9.80;7.40;;;15.50;79.00;;;;;;5014774;28;20543;-70
2022/05/02 08:49:32;;;;;;;10.80;7.97;;;15.50;79.00;;;;;;4999613;28;20449;-70
2022/05/02 08:52:25;;;;;;;10.20;7.40;;;15.50;79.00;;;;;;4998309;28;20436;-70
2022/05/02 08:55:06;;;;;;;10.37;8.13;;;15.60;79.10;;;;;;5015838;28;20943;-70
2022/05/02 08:57:53;;;;;;;10.17;6.93;;;15.60;79.10;;;;;;4998204;28;20458;-70
2022/05/02 09:00:26;;;;;;;13.77;8.27;;;15.60;79.00;;;;;;5014564;28;20426;-70
2022/05/02 09:03:36;;;;;;;12.40;8.60;;;15.70;79.20;;;;;;5014389;28;20550;-70
2022/05/02 09:06:18;;;;;;;10.37;7.83;;;15.60;79.20;;;;;;5015256;28;20992;-70
2022/05/02 09:09:06;;;;;;;10.67;7.87;;;15.70;79.30;;;;;;4994755;28;20980;-70
2022/05/02 09:11:49;;;;;;;11.23;8.73;;;15.70;79.20;;;;;;4994673;28;20422;-70
2022/05/02 09:14:24;;;;;;;10.97;8.90;;;15.80;79.30;;;;;;4994768;28;20401;-70
2022/05/02 09:16:56;;;;;;;11.60;9.50;;;15.80;79.30;;;;;;5005098;28;20427;-70
2022/05/02 09:19:48;;;;;;;12.57;8.37;;;15.80;79.20;;;;;;5001342;28;20457;-70
2022/05/02 09:22:38;;;;;;;11.40;9.20;;;15.90;79.30;;;;;;4994195;28;20457;-70
2022/05/02 09:25:09;;;;;;;10.90;8.30;;;15.90;79.30;;;;;;4997962;28;20427;-70
2022/05/02 09:27:57;;;;;;;10.37;8.33;;;16.00;79.40;;;;;;5014896;28;20548;-70
2022/05/02 09:30:47;;;;;;;14.70;8.63;;;16.00;79.50;;;;;;5015101;28;20407;-70
2022/05/02 09:33:30;;;;;;;13.87;9.20;;;16.00;79.40;;;;;;5014876;28;20443;-69
2022/05/02 09:36:03;;;;;;;14.03;8.67;;;16.00;79.40;;;;;;4997553;28;20423;-70
2022/05/02 09:38:48;;;;;;;12.30;9.47;;;16.10;79.60;;;;;;5014797;28;20437;-70
2022/05/02 09:41:46;;;;;;;11.20;8.57;;;16.10;79.60;;;;;;5013240;28;20418;-70
2022/05/02 09:50:26;;;;;;;10.00;8.10;;;16.20;79.50;;;;;;5014712;28;20476;-70
2022/05/02 09:53:27;;;;;;;10.30;8.10;;;16.30;79.70;;;;;;4994069;28;20899;-70
2022/05/02 09:58:59;;;;;;;8.43;7.03;;;16.40;79.80;;;;;;4993882;28;20516;-70
2022/05/02 10:01:29;;;;;;;9.27;7.20;;;16.40;79.80;;;;;;4993705;28;20887;-69
2022/05/02 10:04:22;;;;;;;9.63;7.07;;;16.50;79.80;;;;;;4977438;28;20780;-69
2022/05/02 10:06:58;;;;;;;8.27;6.40;;;16.50;79.90;;;;;;4994744;28;20930;-69
2022/05/02 10:09:41;;;;;;;9.77;6.60;;;16.50;79.70;;;;;;4993729;28;20444;-69
2022/05/02 10:12:48;;;;;;;7.23;6.40;;;16.60;79.70;;;;;;4994547;28;20407;-69
2022/05/02 10:15:36;;;;;;;7.80;7.00;;;16.60;79.70;;;;;;4953476;28;20451;-69
2022/05/02 10:18:16;;;;;;;7.13;6.33;;;16.70;79.80;;;;;;5002671;28;20469;-70
2022/05/02 10:20:46;;;;;;;8.20;7.00;;;16.80;79.70;;;;;;5001397;28;20427;-70
2022/05/02 10:23:45;;;;;;;8.77;6.10;;;16.80;79.60;;;;;;4997125;28;20829;-69
2022/05/02 10:26:52;;;;;;;10.10;6.60;;;16.80;79.60;;;;;;4995540;28;20459;-70
2022/05/02 10:29:58;;;;;;;8.23;5.90;;;16.90;79.60;;;;;;5008080;28;20458;-69
2022/05/02 10:32:36;;;;;;;6.67;5.97;;;16.90;79.40;;;;;;5013863;28;20410;-69
2022/05/02 10:35:03;;;;;;;8.20;5.77;;;17.00;79.40;;;;;;4980004;28;20506;-69
2022/05/02 10:37:35;;;;;;;7.40;6.60;;;17.00;79.40;;;;;;4996265;28;20443;-69
2022/05/02 10:40:10;;;;;;;9.00;5.30;;;17.10;79.40;;;;;;5012430;28;20444;-70
2022/05/02 10:42:42;;;;;;;6.57;5.70;;;17.10;79.40;;;;;;5012655;28;20820;-70
2022/05/02 10:45:10;;;;;;;7.87;5.70;;;17.20;79.40;;;;;;5029093;28;20438;-70
2022/05/02 10:47:52;;;;;;;6.70;6.00;;;17.20;79.20;;;;;;5002028;28;20475;-70
2022/05/02 10:50:35;;;;;;;6.80;5.50;;;17.20;79.20;;;;;;4991829;28;20921;-69
2022/05/02 10:53:10;;;;;;;6.43;5.00;;;17.30;79.10;;;;;;4993072;28;20415;-70
2022/05/02 10:55:55;;;;;;;6.83;5.60;;;17.30;79.00;;;;;;4976725;28;20921;-69
2022/05/02 10:58:24;;;;;;;8.17;5.40;;;17.40;79.10;;;;;;5011785;28;20464;-69
2022/05/02 11:01:10;;;;;;;8.87;6.70;;;17.40;78.90;;;;;;5013068;28;20396;-69
2022/05/02 11:04:10;;;;;;;6.70;6.10;;;17.40;78.80;;;;;;5013424;28;20896;-70
2022/05/02 11:06:43;;;;;;;10.70;5.70;;;17.50;78.70;;;;;;4995657;28;20525;-69
2022/05/02 11:09:18;;;;;;;8.20;6.20;;;17.60;78.80;;;;;;5011901;28;20482;-69
2022/05/02 11:11:50;;;;;;;6.87;6.10;;;17.60;78.70;;;;;;4995749;28;20832;-69
2022/05/02 11:14:43;;;;;;;7.80;5.87;;;17.60;78.60;;;;;;5013168;28;20498;-70
2022/05/02 11:17:15;;;;;;;6.20;5.63;;;17.70;78.60;;;;;;5008871;28;20505;-70
2022/05/02 11:22:38;;;;;;;6.80;6.00;;;17.80;78.50;;;;;;5012699;28;20524;-70
2022/05/02 11:25:11;;;;;;;7.10;6.00;;;17.80;78.40;;;;;;4991809;28;20451;-69
2022/05/02 11:27:57;;;;;;;5.60;5.10;;;17.80;78.20;;;;;;5012177;28;20474;-70
2022/05/02 11:30:31;;;;;;;6.33;5.73;;;17.90;78.10;;;;;;5011438;28;20462;-70
2022/05/02 11:33:24;;;;;;;7.90;5.80;;;17.90;78.00;;;;;;5011588;28;20427;-69
2022/05/02 11:36:00;;;;;;;7.10;5.40;;;17.90;77.90;;;;;;5022657;28;20424;-70
2022/05/02 11:38:56;;;;;;;6.00;5.40;;;18.00;77.90;;;;;;5012597;28;20449;-69
2022/05/02 11:41:33;;;;;;;7.67;6.20;;;18.10;77.90;;;;;;5010539;28;20949;-70
2022/05/02 11:44:13;;;;;;;6.20;5.30;;;18.10;78.50;;;;;;5011714;28;20839;-70
2022/05/02 11:46:55;;;;;;;6.00;5.40;;;18.10;77.60;;;;;;5010851;28;20448;-70
2022/05/02 11:49:54;;;;;;;6.10;4.97;;;18.10;77.50;;;;;;4994852;28;20451;-69
2022/05/02 11:52:33;;;;;;;10.90;5.33;;;18.20;77.50;;;;;;5004551;28;20441;-70
2022/05/02 11:55:01;;;;;;;9.13;5.20;;;18.20;77.40;;;;;;4990162;28;20423;-69
2022/05/02 11:57:44;;;;;;;7.03;5.73;;;18.20;77.30;;;;;;5012044;28;20466;-69
2022/05/02 12:00:16;;;;;;;5.70;5.20;;;18.20;77.30;;;;;;5012311;28;20455;-70
2022/05/02 12:02:53;;;;;;;6.30;5.40;;;18.30;77.20;;;;;;5011632;28;20823;-70
2022/05/02 12:05:27;;;;;;;5.73;5.20;;;18.30;77.20;;;;;;5009391;28;20819;-69
2022/05/02 12:07:59;;;;;;;6.57;5.90;;;18.30;77.20;;;;;;5005822;28;20467;-69
2022/05/02 12:10:41;;;;;;;6.53;5.73;;;18.40;77.20;;;;;;5004765;28;20517;-70
2022/05/02 12:13:13;;;;;;;6.10;5.50;;;18.40;77.00;;;;;;5012905;28;20870;-70
2022/05/02 12:15:57;;;;;;;7.40;6.00;;;18.50;77.10;;;;;;4999336;28;20925;-69
2022/05/02 12:18:40;;;;;;;6.20;5.60;;;18.50;76.90;;;;;;4987466;28;20588;-69
2022/05/02 12:21:08;;;;;;;6.03;5.43;;;18.50;76.90;;;;;;5001157;28;20430;-69
2022/05/02 12:23:37;;;;;;;6.33;5.63;;;18.50;76.80;;;;;;5009146;28;20413;-68
2022/05/02 12:26:15;;;;;;;7.13;6.10;;;18.50;76.70;;;;;;5008469;28;21020;-69
2022/05/02 12:28:48;;;;;;;7.10;6.17;;;18.60;76.70;;;;;;4991924;28;20453;-68
2022/05/02 12:31:28;;;;;;;6.97;5.10;;;18.60;76.70;;;;;;5008940;28;20881;-68
2022/05/02 12:34:06;;;;;;;6.30;5.43;;;18.70;77.60;;;;;;5007301;28;20420;-69
2022/05/02 12:36:49;;;;;;;6.17;4.80;;;18.70;76.80;;;;;;5008951;28;20559;-69
2022/05/02 12:39:33;;;;;;;6.70;6.10;;;18.70;76.70;;;;;;5008782;28;20566;-68
2022/05/02 12:42:12;;;;;;;8.10;5.73;;;18.80;76.80;;;;;;5008248;28;20961;-69
2022/05/02 12:45:00;;;;;;;6.20;5.70;;;18.80;76.70;;;;;;5009722;28;20420;-69
2022/05/02 12:47:42;;;;;;;7.80;4.80;;;18.80;76.50;;;;;;5009444;28;20479;-69
2022/05/02 12:50:11;;;;;;;6.13;5.53;;;18.90;76.70;;;;;;4982964;28;20420;-68
2022/05/02 12:52:46;;;;;;;5.40;4.90;;;18.90;76.60;;;;;;5010123;28;20436;-68
2022/05/02 12:55:14;;;;;;;6.27;5.40;;;19.00;76.60;;;;;;5010198;28;20483;-68
2022/05/02 13:00:32;;;;;;;5.83;5.40;;;19.00;76.50;;;;;;5011887;28;20431;-68
2022/05/02 13:03:14;;;;;;;5.60;5.10;;;19.00;76.40;;;;;;5009864;28;20474;-68
2022/05/02 13:05:50;;;;;;;6.20;4.87;;;19.10;76.40;;;;;;5011670;28;20447;-68
2022/05/02 13:08:21;;;;;;;5.70;5.20;;;19.10;76.30;;;;;;5010291;28;20510;-68
2022/05/02 13:10:54;;;;;;;5.87;5.30;;;19.10;76.30;;;;;;5010351;28;20456;-67
2022/05/02 13:13:21;;;;;;;5.93;5.43;;;19.20;76.10;;;;;;5009476;28;20492;-68
2022/05/02 13:15:54;;;;;;;5.53;5.03;;;19.20;75.80;;;;;;5015105;28;20440;-68
2022/05/02 13:18:22;;;;;;;5.73;5.03;;;19.20;75.70;;;;;;5015265;28;20781;-68
2022/05/02 13:21:11;;;;;;;7.43;6.63;;;19.20;75.50;;;;;;5015384;28;20455;-69
2022/05/02 13:23:37;;;;;;;6.47;5.97;;;19.30;75.50;;;;;;5015366;28;20397;-68
2022/05/02 13:26:22;;;;;;;6.00;5.50;;;19.30;75.50;;;;;;5014237;28;20461;-68
2022/05/02 13:28:50;;;;;;;7.33;6.20;;;19.40;75.30;;;;;;5029878;28;20436;-68
2022/05/02 13:31:47;;;;;;;5.90;5.37;;;19.40;75.10;;;;;;5014882;28;20404;-69
2022/05/02 13:34:27;;;;;;;7.17;6.50;;;19.40;74.90;;;;;;4997772;28;20421;-69
2022/05/02 13:37:17;;;;;;;6.80;6.10;;;19.50;75.00;;;;;;5013286;28;20441;-68
2022/05/02 13:40:01;;;;;;;6.30;5.70;;;19.50;75.00;;;;;;5013662;28;20420;-68
2022/05/02 13:42:39;;;;;;;6.97;5.47;;;19.50;74.90;;;;;;5015086;28;20421;-69
2022/05/02 13:45:25;;;;;;;8.80;6.67;;;19.50;74.80;;;;;;5014607;28;20903;-68
2022/05/02 13:48:14;;;;;;;6.10;5.60;;;19.60;74.90;;;;;;4997742;28;20447;-69
2022/05/02 13:51:01;;;;;;;8.40;6.13;;;19.60;74.70;;;;;;5012798;28;20432;-68
2022/05/02 13:53:39;;;;;;;7.70;6.37;;;19.70;74.60;;;;;;5014281;28;20409;-68
2022/05/02 13:56:10;;;;;;;6.90;6.30;;;19.70;74.60;;;;;;4997266;28;20932;-68
2022/05/02 13:58:41;;;;;;;7.90;7.23;;;19.70;74.60;;;;;;5013431;28;20474;-68
2022/05/02 14:01:50;;;;;;;8.57;7.70;;;19.80;74.70;;;;;;5014499;28;20457;-68
2022/05/02 14:07:13;;;;;;;7.00;6.30;;;19.90;74.10;;;;;;5014518;28;20473;-68